createdAt,value
2023-04-12T00:04:04.515Z,56.66
2023-04-12T00:09:08.836Z,57.54
2023-04-12T00:14:12.376Z,56.87
2023-04-12T00:19:18.033Z,57.09
2023-04-12T00:24:21.571Z,56.45
2023-04-12T00:29:25.241Z,56.70
2023-04-12T00:34:30.150Z,57.09
2023-04-12T00:39:33.332Z,55.44
2023-04-12T00:44:36.860Z,56.04
2023-04-12T00:49:41.921Z,56.48
2023-04-12T00:54:45.946Z,55.82
2023-04-12T00:59:49.407Z,55.66
2023-04-12T01:04:54.310Z,55.83
2023-04-12T01:10:00.968Z,55.36
2023-04-12T01:15:08.900Z,55.41
2023-04-12T01:20:17.327Z,55.76
2023-04-12T01:25:34.623Z,55.76
2023-04-12T01:30:40.821Z,56.12
2023-04-12T01:35:45.834Z,56.44
2023-04-12T01:40:50.331Z,55.88
2023-04-12T01:45:55.600Z,56.21
2023-04-12T01:51:06.572Z,56.26
2023-04-12T01:56:11.443Z,56.02
2023-04-12T02:01:16.904Z,54.68
2023-04-12T02:06:21.897Z,55.49
2023-04-12T02:11:25.040Z,55.22
2023-04-12T02:16:30.239Z,56.45
2023-04-12T02:21:42.209Z,55.84
2023-04-12T02:26:46.353Z,55.57
2023-04-12T02:31:51.352Z,56.20
2023-04-12T02:36:54.846Z,56.68
2023-04-12T02:41:58.353Z,55.92
2023-04-12T02:47:03.712Z,56.82
2023-04-12T02:52:07.257Z,56.39
2023-04-12T02:57:11.684Z,57.10
2023-04-12T03:02:16.948Z,57.19
2023-04-12T03:07:21.425Z,57.06
2023-04-12T03:12:24.916Z,56.69
2023-04-12T03:17:29.883Z,56.46
2023-04-12T03:22:33.357Z,57.38
2023-04-12T03:27:36.843Z,56.69
2023-04-12T03:32:42.778Z,56.21
2023-04-12T03:37:46.297Z,55.96
2023-04-12T03:42:49.851Z,55.04
2023-04-12T03:47:54.900Z,54.63
2023-04-12T03:52:58.397Z,54.47
2023-04-12T03:58:02.180Z,53.46
2023-04-12T04:03:07.958Z,52.87
2023-04-12T04:08:11.574Z,52.18
2023-04-12T04:13:15.140Z,51.69
2023-04-12T04:18:20.031Z,45.26
2023-04-12T04:23:23.482Z,37.57
2023-04-12T04:28:29.363Z,32.63
2023-04-12T04:33:34.384Z,26.99
2023-04-12T04:38:38.059Z,25.67
2023-04-12T04:43:42.835Z,31.89
2023-04-12T04:48:47.894Z,33.95
2023-04-12T04:53:51.489Z,29.05
2023-04-12T04:58:57.000Z,23.49
2023-04-12T05:04:02.308Z,19.96
2023-04-12T05:09:05.924Z,18.09
2023-04-12T05:14:11.293Z,17.78
2023-04-12T05:19:17.322Z,18.00
2023-04-12T05:24:20.986Z,18.12
2023-04-12T05:29:24.431Z,16.55
2023-04-12T05:34:29.399Z,15.80
2023-04-12T05:39:35.368Z,15.83
2023-04-12T05:44:40.392Z,15.39
2023-04-12T05:49:45.236Z,14.59
2023-04-12T05:54:49.196Z,14.68
2023-04-12T05:59:52.608Z,14.21
2023-04-12T06:04:58.448Z,14.55
2023-04-12T06:10:02.079Z,10.91
2023-04-12T06:15:08.039Z,9.70
2023-04-12T06:20:14.259Z,9.75
2023-04-12T06:25:17.777Z,9.40
2023-04-12T06:30:21.463Z,8.30
2023-04-12T06:35:26.344Z,8.57
2023-04-12T06:40:30.192Z,8.37
2023-04-12T06:45:33.744Z,8.90
2023-04-12T06:50:38.818Z,9.80
2023-04-12T06:55:42.650Z,9.32
2023-04-12T07:00:46.133Z,9.33
2023-04-12T07:05:51.704Z,9.02
2023-04-12T07:10:55.473Z,9.17
2023-04-12T07:16:01.062Z,8.15
2023-04-12T07:21:08.006Z,8.82
2023-04-12T07:26:11.631Z,9.18
2023-04-12T07:31:15.108Z,8.56
2023-04-12T07:36:22.251Z,8.89
2023-04-12T07:41:25.757Z,8.91
2023-04-12T07:46:29.391Z,7.69
2023-04-12T07:51:34.307Z,7.64
2023-04-12T07:56:37.931Z,7.66
2023-04-12T08:01:41.445Z,6.98
2023-04-12T08:06:46.491Z,7.27
2023-04-12T08:11:50.029Z,7.57
2023-04-12T08:16:53.461Z,8.04
2023-04-12T08:21:58.293Z,8.37
2023-04-12T08:27:02.497Z,8.59
2023-04-12T08:32:07.373Z,9.89
2023-04-12T08:37:12.482Z,10.18
2023-04-12T08:42:17.326Z,11.29
2023-04-12T08:47:22.427Z,12.30
2023-04-12T08:52:28.502Z,13.05
2023-04-12T08:57:32.719Z,13.16
2023-04-12T09:02:37.503Z,13.76
2023-04-12T09:07:42.707Z,15.32
2023-04-12T09:12:50.956Z,15.91
2023-04-12T09:18:07.179Z,15.99
2023-04-12T09:23:22.649Z,15.97
2023-04-12T09:28:27.883Z,16.93
2023-04-12T09:33:36.423Z,16.29
2023-04-12T09:38:44.014Z,16.83
2023-04-12T09:43:47.472Z,17.21
2023-04-12T09:48:52.490Z,16.87
2023-04-12T09:54:01.070Z,16.90
2023-04-12T09:59:05.978Z,17.05
2023-04-12T10:04:10.633Z,17.08
2023-04-12T10:09:15.832Z,17.05
2023-04-12T10:14:20.944Z,17.43
2023-04-12T10:19:26.722Z,17.84
2023-04-12T10:24:32.226Z,18.11
2023-04-12T10:29:37.457Z,17.48
2023-04-12T10:34:44.093Z,18.07
2023-04-12T10:39:54.236Z,18.52
2023-04-12T10:45:01.014Z,18.46
2023-04-12T10:50:24.759Z,17.90
2023-04-12T10:55:33.725Z,18.09
2023-04-12T11:01:12.574Z,18.11
2023-04-12T11:06:26.999Z,18.02
2023-04-12T11:11:36.109Z,18.29
2023-04-12T11:17:12.954Z,18.74
2023-04-12T11:22:18.353Z,18.71
2023-04-12T11:27:24.838Z,18.52
2023-04-12T11:32:30.521Z,18.78
2023-04-12T11:37:35.310Z,19.37
2023-04-12T11:42:41.804Z,19.05
2023-04-12T11:47:45.569Z,19.32
2023-04-12T11:52:49.101Z,19.32
2023-04-12T11:57:56.173Z,19.03
2023-04-12T12:03:07.726Z,18.92
2023-04-12T12:08:14.651Z,18.79
2023-04-12T12:13:19.332Z,18.96
2023-04-12T12:18:29.086Z,19.26
2023-04-12T12:23:33.282Z,19.20
2023-04-12T12:28:39.908Z,19.23
2023-04-12T12:33:47.060Z,19.25
2023-04-12T12:38:54.651Z,19.33
2023-04-12T12:43:59.797Z,19.97
2023-04-12T12:49:03.383Z,19.45
2023-04-12T12:54:07.899Z,19.45
2023-04-12T12:59:12.831Z,19.87
2023-04-12T13:04:16.393Z,20.40
2023-04-12T13:09:20.018Z,19.38
2023-04-12T13:14:24.936Z,19.61
2023-04-12T13:19:28.422Z,19.86
2023-04-12T13:24:31.854Z,19.73
2023-04-12T13:29:36.967Z,19.58
2023-04-12T13:34:40.521Z,19.77
2023-04-12T13:39:44.891Z,19.56
2023-04-12T13:44:49.661Z,19.58
2023-04-12T13:49:54.597Z,19.63
2023-04-12T13:54:59.781Z,20.07
2023-04-12T14:00:08.072Z,19.32
2023-04-12T14:05:12.685Z,19.63
2023-04-12T14:10:16.312Z,19.53
2023-04-12T14:15:21.917Z,19.96
2023-04-12T14:20:25.708Z,20.45
2023-04-12T14:25:29.271Z,20.33
2023-04-12T14:30:34.289Z,20.36
2023-04-12T14:35:37.806Z,20.17
2023-04-12T14:40:41.394Z,20.18
2023-04-12T14:45:46.504Z,20.36
2023-04-12T14:50:49.968Z,20.68
2023-04-12T14:55:53.523Z,20.61
2023-04-12T15:01:00.312Z,20.87
2023-04-12T15:06:04.229Z,20.92
2023-04-12T15:11:10.410Z,20.79
2023-04-12T15:16:15.850Z,20.81
2023-04-12T15:21:19.494Z,20.86
2023-04-12T15:26:22.984Z,20.99
2023-04-12T15:31:28.419Z,21.35
2023-04-12T15:36:34.978Z,21.44
2023-04-12T15:41:40.425Z,21.49
2023-04-12T15:46:56.014Z,21.71
2023-04-12T15:52:03.201Z,21.97
2023-04-12T15:57:09.684Z,22.27
2023-04-12T16:02:14.899Z,22.65
2023-04-12T16:07:18.963Z,23.10
2023-04-12T16:12:22.398Z,23.45
2023-04-12T16:17:27.283Z,23.90
2023-04-12T16:22:30.709Z,24.41
2023-04-12T16:27:34.309Z,24.57
2023-04-12T16:32:39.315Z,25.34
2023-04-12T16:37:43.514Z,25.78
2023-04-12T16:42:47.112Z,25.93
2023-04-12T16:47:52.013Z,26.19
2023-04-12T16:52:55.530Z,26.55
2023-04-12T16:57:59.001Z,26.90
2023-04-12T17:03:04.247Z,27.27
2023-04-12T17:08:09.873Z,27.08
2023-04-12T17:13:13.724Z,27.67
2023-04-12T17:18:18.632Z,28.13
2023-04-12T17:23:22.175Z,28.08
2023-04-12T17:28:25.983Z,28.75
2023-04-12T17:33:30.866Z,28.92
2023-04-12T17:38:34.751Z,28.83
2023-04-12T17:43:38.223Z,28.74
2023-04-12T17:48:43.282Z,29.35
2023-04-12T17:53:47.053Z,29.33
2023-04-12T17:58:50.533Z,29.35
2023-04-12T18:03:57.621Z,29.89
2023-04-12T18:09:02.570Z,29.70
2023-04-12T18:14:06.180Z,30.24
2023-04-12T18:19:11.633Z,30.35
2023-04-12T18:24:15.722Z,29.98
2023-04-12T18:29:19.598Z,30.31
2023-04-12T18:34:24.745Z,29.93
2023-04-12T18:39:28.665Z,30.34
2023-04-12T18:44:32.636Z,30.47
2023-04-12T18:49:37.568Z,31.38
2023-04-12T18:54:41.039Z,31.38
2023-04-12T18:59:47.972Z,31.35
2023-04-12T19:04:53.045Z,31.69
2023-04-12T19:09:56.600Z,31.64
2023-04-12T19:15:00.169Z,31.46
2023-04-12T19:20:05.277Z,32.01
2023-04-12T19:25:09.968Z,31.85
2023-04-12T19:30:14.952Z,31.88
2023-04-12T19:35:19.847Z,32.07
2023-04-12T19:40:23.291Z,32.08
2023-04-12T19:45:28.053Z,32.26
2023-04-12T19:50:33.017Z,32.90
2023-04-12T19:55:36.723Z,32.76
2023-04-12T20:00:41.495Z,32.71
2023-04-12T20:05:47.627Z,32.37
2023-04-12T20:10:51.087Z,34.31
2023-04-12T20:15:54.598Z,34.80
2023-04-12T20:20:59.441Z,35.08
2023-04-12T20:26:02.934Z,35.30
2023-04-12T20:31:06.720Z,35.42
2023-04-12T20:36:13.428Z,36.26
2023-04-12T20:41:16.875Z,36.75
2023-04-12T20:46:25.751Z,37.11
2023-04-12T20:51:30.914Z,37.54
2023-04-12T20:56:34.066Z,36.67
2023-04-12T21:01:37.689Z,37.38
2023-04-12T21:06:42.533Z,37.67
2023-04-12T21:11:46.520Z,36.71
2023-04-12T21:16:49.900Z,37.16
2023-04-12T21:21:55.048Z,36.95
2023-04-12T21:26:58.527Z,37.87
2023-04-12T21:32:02.498Z,38.06
2023-04-12T21:37:07.872Z,37.94
2023-04-12T21:42:11.343Z,38.69
2023-04-12T21:47:14.836Z,39.45
2023-04-12T21:52:19.658Z,39.30
2023-04-12T21:57:23.582Z,38.75
2023-04-12T22:02:27.690Z,39.07
2023-04-12T22:07:33.682Z,38.89
2023-04-12T22:12:37.842Z,39.08
2023-04-12T22:17:41.398Z,38.56
2023-04-12T22:22:46.374Z,38.46
2023-04-12T22:27:49.541Z,37.73
2023-04-12T22:32:53.912Z,38.08
2023-04-12T22:37:58.837Z,38.18
2023-04-12T22:43:02.053Z,37.73
2023-04-12T22:48:06.897Z,39.04
2023-04-12T22:53:14.126Z,38.88
2023-04-12T22:58:17.805Z,38.82
2023-04-12T23:03:21.780Z,39.66
2023-04-12T23:08:26.797Z,40.11
2023-04-12T23:13:30.438Z,39.94
2023-04-12T23:18:33.900Z,40.19
2023-04-12T23:23:38.942Z,40.40
2023-04-12T23:28:42.614Z,41.46
2023-04-12T23:33:46.920Z,41.51
2023-04-12T23:38:55.519Z,41.90
2023-04-12T23:43:59.689Z,42.51
2023-04-12T23:49:03.512Z,42.40
2023-04-12T23:54:08.538Z,42.88
2023-04-12T23:59:11.939Z,43.01
